KGRK

Robert Gray AAF Airport

Fort Hood/Killeen, Texas, USA
METAR KGRK 181321Z 16006KT 1/4SM FG OVC001 09/08 A2997 RMK AO2A RVRNO
Observed Flight Rules
Jan-18 @ 13:21 UTC (25 minutes ago) Instrument Flight Rules
Wind Visibility Clouds Conditions
160° at 6 knots 1/4 miles
  • Overcast at 100' AGL
  • Fog
Temperatures Readings
Current 9°C / 48°F
Dewpoint 8°C / 46°F
Humidity 94%
Altimeter 29.97" Hg
Pressure 1014.92 hPa
Elevation 309
METAR KGRK 181321Z 16006KT 1/4SM FG OVC001 09/08 A2997 RMK AO2A RVRNO
Observed Flight Rules
Jan-18 @ 13:21 UTC
(25 minutes ago)
LIFR
Wind Visibility
160° at 6 knots 1/4 miles
Clouds
  • Overcast at 100' AGL
Conditions
  • Fog
Temperature Dewpoint
9°C / 48°F 8°C / 46°F
Humidity Altimeter Pressure
94% 29.97" Hg 1014.92 hPa